sensor_id;sensor_type;location;lat;lon;timestamp;temperature;humidity
9265;DHT22;4669;49.594;10.958;2022-12-18T00:03:00;-8.20;99.90
9265;DHT22;4669;49.594;10.958;2022-12-18T00:08:03;-8.20;99.90
9265;DHT22;4669;49.594;10.958;2022-12-18T00:13:05;-8.30;99.90
9265;DHT22;4669;49.594;10.958;2022-12-18T00:18:07;-8.30;99.90
9265;DHT22;4669;49.594;10.958;2022-12-18T00:23:10;-8.50;99.90
9265;DHT22;4669;49.594;10.958;2022-12-18T00:28:12;-8.60;99.90
9265;DHT22;4669;49.594;10.958;2022-12-18T00:33:15;-8.60;99.90
9265;DHT22;4669;49.594;10.958;2022-12-18T00:38:18;-8.60;99.90
9265;DHT22;4669;49.594;10.958;2022-12-18T00:43:20;-8.60;99.90
9265;DHT22;4669;49.594;10.958;2022-12-18T00:48:22;-8.60;99.90
9265;DHT22;4669;49.594;10.958;2022-12-18T00:53:26;-8.70;99.90
9265;DHT22;4669;49.594;10.958;2022-12-18T00:58:28;-8.70;99.90
9265;DHT22;4669;49.594;10.958;2022-12-18T01:03:30;-8.70;99.90
9265;DHT22;4669;49.594;10.958;2022-12-18T01:08:33;-8.80;99.90
9265;DHT22;4669;49.594;10.958;2022-12-18T01:13:36;-8.80;99.90
9265;DHT22;4669;49.594;10.958;2022-12-18T01:18:38;-8.70;99.90
9265;DHT22;4669;49.594;10.958;2022-12-18T01:23:51;-9.00;99.90
9265;DHT22;4669;49.594;10.958;2022-12-18T01:28:54;-8.90;99.90
9265;DHT22;4669;49.594;10.958;2022-12-18T01:33:59;-8.80;99.90
9265;DHT22;4669;49.594;10.958;2022-12-18T01:39:05;-8.90;99.90
9265;DHT22;4669;49.594;10.958;2022-12-18T01:49:42;-8.90;99.90
9265;DHT22;4669;49.594;10.958;2022-12-18T01:54:46;-8.80;99.90
9265;DHT22;4669;49.594;10.958;2022-12-18T01:59:51;-8.90;99.90
9265;DHT22;4669;49.594;10.958;2022-12-18T02:04:54;-9.00;99.90
9265;DHT22;4669;49.594;10.958;2022-12-18T02:10:03;-9.00;99.90
9265;DHT22;4669;49.594;10.958;2022-12-18T02:15:13;-8.90;99.90
9265;DHT22;4669;49.594;10.958;2022-12-18T02:20:20;-9.10;99.90
9265;DHT22;4669;49.594;10.958;2022-12-18T02:25:38;-9.10;99.90
9265;DHT22;4669;49.594;10.958;2022-12-18T02:30:45;-9.00;99.90
9265;DHT22;4669;49.594;10.958;2022-12-18T02:35:49;-9.10;99.90
9265;DHT22;4669;49.594;10.958;2022-12-18T02:40:54;-9.10;99.90
9265;DHT22;4669;49.594;10.958;2022-12-18T02:46:00;-9.10;99.90
9265;DHT22;4669;49.594;10.958;2022-12-18T02:51:28;-9.10;99.90
9265;DHT22;4669;49.594;10.958;2022-12-18T02:56:36;-9.00;99.90
9265;DHT22;4669;49.594;10.958;2022-12-18T03:01:49;-9.00;99.90
9265;DHT22;4669;49.594;10.958;2022-12-18T03:06:55;-8.90;99.90
9265;DHT22;4669;49.594;10.958;2022-12-18T03:12:04;-8.80;99.90
9265;DHT22;4669;49.594;10.958;2022-12-18T03:17:30;-8.60;99.90
9265;DHT22;4669;49.594;10.958;2022-12-18T03:22:34;-8.50;99.90
9265;DHT22;4669;49.594;10.958;2022-12-18T03:27:42;-8.30;99.90
9265;DHT22;4669;49.594;10.958;2022-12-18T03:32:52;-8.30;99.90
9265;DHT22;4669;49.594;10.958;2022-12-18T03:37:56;-8.20;99.90
9265;DHT22;4669;49.594;10.958;2022-12-18T03:43:19;-8.20;99.90
9265;DHT22;4669;49.594;10.958;2022-12-18T03:48:29;-8.10;99.90
9265;DHT22;4669;49.594;10.958;2022-12-18T03:53:43;-8.10;99.90
9265;DHT22;4669;49.594;10.958;2022-12-18T03:58:51;-8.10;99.90
9265;DHT22;4669;49.594;10.958;2022-12-18T04:04:02;-8.00;99.90
9265;DHT22;4669;49.594;10.958;2022-12-18T04:09:08;-7.90;99.90
9265;DHT22;4669;49.594;10.958;2022-12-18T04:14:14;-7.80;99.90
9265;DHT22;4669;49.594;10.958;2022-12-18T04:19:18;-7.60;99.90
9265;DHT22;4669;49.594;10.958;2022-12-18T04:24:23;-7.40;99.90
9265;DHT22;4669;49.594;10.958;2022-12-18T04:29:36;-7.40;99.90
9265;DHT22;4669;49.594;10.958;2022-12-18T04:34:40;-7.40;99.90
9265;DHT22;4669;49.594;10.958;2022-12-18T04:39:42;-7.40;99.90
9265;DHT22;4669;49.594;10.958;2022-12-18T04:44:53;-7.30;99.90
9265;DHT22;4669;49.594;10.958;2022-12-18T04:49:56;-7.30;99.90
9265;DHT22;4669;49.594;10.958;2022-12-18T04:54:58;-7.20;99.90
9265;DHT22;4669;49.594;10.958;2022-12-18T05:00:00;-7.20;99.90
9265;DHT22;4669;49.594;10.958;2022-12-18T05:05:04;-7.20;99.90
9265;DHT22;4669;49.594;10.958;2022-12-18T05:10:07;-7.20;99.90
9265;DHT22;4669;49.594;10.958;2022-12-18T05:15:09;-7.00;99.90
9265;DHT22;4669;49.594;10.958;2022-12-18T05:20:13;-6.90;99.90
9265;DHT22;4669;49.594;10.958;2022-12-18T05:25:15;-6.80;99.90
9265;DHT22;4669;49.594;10.958;2022-12-18T05:30:18;-6.80;99.90
9265;DHT22;4669;49.594;10.958;2022-12-18T05:35:22;-6.80;99.90
9265;DHT22;4669;49.594;10.958;2022-12-18T05:40:24;-6.70;99.90
9265;DHT22;4669;49.594;10.958;2022-12-18T05:45:26;-6.70;99.90
9265;DHT22;4669;49.594;10.958;2022-12-18T05:50:29;-6.70;99.90
9265;DHT22;4669;49.594;10.958;2022-12-18T05:55:36;-6.70;99.90
9265;DHT22;4669;49.594;10.958;2022-12-18T06:00:43;-6.70;99.90
9265;DHT22;4669;49.594;10.958;2022-12-18T06:05:46;-6.70;99.90
9265;DHT22;4669;49.594;10.958;2022-12-18T06:10:51;-6.60;99.90
9265;DHT22;4669;49.594;10.958;2022-12-18T06:15:54;-6.60;99.90
9265;DHT22;4669;49.594;10.958;2022-12-18T06:20:58;-6.70;99.90
9265;DHT22;4669;49.594;10.958;2022-12-18T06:26:04;-6.60;99.90
9265;DHT22;4669;49.594;10.958;2022-12-18T06:31:07;-6.60;99.90
9265;DHT22;4669;49.594;10.958;2022-12-18T06:36:12;-6.50;99.90
9265;DHT22;4669;49.594;10.958;2022-12-18T06:41:16;-6.30;99.90
9265;DHT22;4669;49.594;10.958;2022-12-18T06:46:18;-6.30;99.90
9265;DHT22;4669;49.594;10.958;2022-12-18T06:51:23;-6.30;99.90
9265;DHT22;4669;49.594;10.958;2022-12-18T06:56:25;-6.20;99.90
9265;DHT22;4669;49.594;10.958;2022-12-18T07:01:27;-6.20;99.90
9265;DHT22;4669;49.594;10.958;2022-12-18T07:06:31;-6.10;99.90
9265;DHT22;4669;49.594;10.958;2022-12-18T07:11:33;-6.20;99.90
9265;DHT22;4669;49.594;10.958;2022-12-18T07:16:35;-6.10;99.90
9265;DHT22;4669;49.594;10.958;2022-12-18T07:21:39;-6.00;99.90
9265;DHT22;4669;49.594;10.958;2022-12-18T07:26:41;-5.90;99.90
9265;DHT22;4669;49.594;10.958;2022-12-18T07:31:43;-5.80;99.90
9265;DHT22;4669;49.594;10.958;2022-12-18T07:36:46;-5.70;99.90
9265;DHT22;4669;49.594;10.958;2022-12-18T07:41:48;-5.70;99.90
9265;DHT22;4669;49.594;10.958;2022-12-18T07:47:10;-5.70;99.90
9265;DHT22;4669;49.594;10.958;2022-12-18T07:52:13;-5.70;99.90
9265;DHT22;4669;49.594;10.958;2022-12-18T07:57:15;-5.50;99.90
9265;DHT22;4669;49.594;10.958;2022-12-18T08:02:17;-5.50;99.90
9265;DHT22;4669;49.594;10.958;2022-12-18T08:07:21;-5.60;99.90
9265;DHT22;4669;49.594;10.958;2022-12-18T08:12:23;-5.50;99.90
9265;DHT22;4669;49.594;10.958;2022-12-18T08:17:25;-5.50;99.90
9265;DHT22;4669;49.594;10.958;2022-12-18T08:22:28;-5.40;99.90
9265;DHT22;4669;49.594;10.958;2022-12-18T08:27:30;-5.20;99.90
9265;DHT22;4669;49.594;10.958;2022-12-18T08:32:32;-5.10;99.90
9265;DHT22;4669;49.594;10.958;2022-12-18T08:37:35;-5.00;99.90
9265;DHT22;4669;49.594;10.958;2022-12-18T08:42:37;-4.90;99.90
9265;DHT22;4669;49.594;10.958;2022-12-18T08:47:57;-4.90;99.90
9265;DHT22;4669;49.594;10.958;2022-12-18T08:53:00;-4.90;99.90
9265;DHT22;4669;49.594;10.958;2022-12-18T08:58:03;-4.90;99.90
9265;DHT22;4669;49.594;10.958;2022-12-18T09:03:05;-4.70;99.90
9265;DHT22;4669;49.594;10.958;2022-12-18T09:08:08;-4.70;99.90
9265;DHT22;4669;49.594;10.958;2022-12-18T09:13:11;-4.50;99.90
9265;DHT22;4669;49.594;10.958;2022-12-18T09:18:15;-4.40;99.90
9265;DHT22;4669;49.594;10.958;2022-12-18T09:23:18;-4.40;99.90
9265;DHT22;4669;49.594;10.958;2022-12-18T09:28:20;-4.30;99.90
9265;DHT22;4669;49.594;10.958;2022-12-18T09:33:25;-4.20;99.90
9265;DHT22;4669;49.594;10.958;2022-12-18T09:38:28;-4.20;99.90
9265;DHT22;4669;49.594;10.958;2022-12-18T09:43:45;-4.20;99.90
9265;DHT22;4669;49.594;10.958;2022-12-18T09:48:49;-4.10;99.90
9265;DHT22;4669;49.594;10.958;2022-12-18T09:53:58;-4.00;99.90
9265;DHT22;4669;49.594;10.958;2022-12-18T09:59:02;-3.90;99.90
9265;DHT22;4669;49.594;10.958;2022-12-18T10:04:05;-3.80;99.90
9265;DHT22;4669;49.594;10.958;2022-12-18T10:09:15;-3.70;99.90
9265;DHT22;4669;49.594;10.958;2022-12-18T10:14:24;-3.60;99.90
9265;DHT22;4669;49.594;10.958;2022-12-18T10:19:42;-3.50;99.90
9265;DHT22;4669;49.594;10.958;2022-12-18T10:24:55;-3.50;99.90
9265;DHT22;4669;49.594;10.958;2022-12-18T10:30:03;-3.40;99.90
9265;DHT22;4669;49.594;10.958;2022-12-18T10:35:14;-3.30;99.90
9265;DHT22;4669;49.594;10.958;2022-12-18T10:40:19;-3.40;99.90
9265;DHT22;4669;49.594;10.958;2022-12-18T10:45:21;-3.40;99.90
9265;DHT22;4669;49.594;10.958;2022-12-18T10:50:26;-3.30;99.90
9265;DHT22;4669;49.594;10.958;2022-12-18T10:55:33;-3.30;99.90
9265;DHT22;4669;49.594;10.958;2022-12-18T11:00:36;-3.30;99.90
9265;DHT22;4669;49.594;10.958;2022-12-18T11:05:38;-3.30;99.90
9265;DHT22;4669;49.594;10.958;2022-12-18T11:10:47;-3.20;99.90
9265;DHT22;4669;49.594;10.958;2022-12-18T11:15:49;-3.20;99.90
9265;DHT22;4669;49.594;10.958;2022-12-18T11:20:53;-3.10;99.90
9265;DHT22;4669;49.594;10.958;2022-12-18T11:25:59;-3.10;99.90
9265;DHT22;4669;49.594;10.958;2022-12-18T11:31:22;-3.10;99.90
9265;DHT22;4669;49.594;10.958;2022-12-18T11:36:27;-3.10;99.90
9265;DHT22;4669;49.594;10.958;2022-12-18T11:41:36;-3.20;99.90
9265;DHT22;4669;49.594;10.958;2022-12-18T11:47:01;-3.10;99.90
9265;DHT22;4669;49.594;10.958;2022-12-18T11:52:10;-3.00;99.90
9265;DHT22;4669;49.594;10.958;2022-12-18T11:57:27;-3.00;99.90
9265;DHT22;4669;49.594;10.958;2022-12-18T12:02:47;-2.90;99.90
9265;DHT22;4669;49.594;10.958;2022-12-18T12:08:01;-2.80;99.90
9265;DHT22;4669;49.594;10.958;2022-12-18T12:13:29;-2.90;99.90
9265;DHT22;4669;49.594;10.958;2022-12-18T12:18:43;-2.80;99.90
9265;DHT22;4669;49.594;10.958;2022-12-18T12:23:55;-2.70;99.90
9265;DHT22;4669;49.594;10.958;2022-12-18T12:29:16;-2.70;99.90
9265;DHT22;4669;49.594;10.958;2022-12-18T12:34:24;-2.70;99.90
9265;DHT22;4669;49.594;10.958;2022-12-18T12:39:30;-2.60;99.90
9265;DHT22;4669;49.594;10.958;2022-12-18T12:44:41;-2.50;99.90
9265;DHT22;4669;49.594;10.958;2022-12-18T12:49:45;-2.40;99.90
9265;DHT22;4669;49.594;10.958;2022-12-18T12:54:48;-2.30;99.90
9265;DHT22;4669;49.594;10.958;2022-12-18T12:59:58;-2.30;99.90
9265;DHT22;4669;49.594;10.958;2022-12-18T13:05:11;-2.40;99.90
9265;DHT22;4669;49.594;10.958;2022-12-18T13:10:31;-2.20;99.90
9265;DHT22;4669;49.594;10.958;2022-12-18T13:15:38;-2.20;99.90
9265;DHT22;4669;49.594;10.958;2022-12-18T13:20:43;-2.30;99.90
9265;DHT22;4669;49.594;10.958;2022-12-18T13:25:45;-2.20;99.90
9265;DHT22;4669;49.594;10.958;2022-12-18T13:30:54;-2.20;99.90
9265;DHT22;4669;49.594;10.958;2022-12-18T13:36:02;-2.20;99.90
9265;DHT22;4669;49.594;10.958;2022-12-18T13:41:22;-2.30;99.90
9265;DHT22;4669;49.594;10.958;2022-12-18T13:46:28;-2.20;99.90
9265;DHT22;4669;49.594;10.958;2022-12-18T13:51:32;-2.30;99.90
9265;DHT22;4669;49.594;10.958;2022-12-18T13:56:43;-2.30;99.90
9265;DHT22;4669;49.594;10.958;2022-12-18T14:01:50;-2.30;99.90
9265;DHT22;4669;49.594;10.958;2022-12-18T14:06:55;-2.30;99.90
9265;DHT22;4669;49.594;10.958;2022-12-18T14:11:58;-2.40;99.90
9265;DHT22;4669;49.594;10.958;2022-12-18T14:17:20;-2.40;99.90
9265;DHT22;4669;49.594;10.958;2022-12-18T14:22:24;-2.30;99.90
9265;DHT22;4669;49.594;10.958;2022-12-18T14:27:28;-2.30;99.90
9265;DHT22;4669;49.594;10.958;2022-12-18T14:32:31;-2.30;99.90
9265;DHT22;4669;49.594;10.958;2022-12-18T14:37:33;-2.30;99.90
9265;DHT22;4669;49.594;10.958;2022-12-18T14:42:35;-2.40;99.90
9265;DHT22;4669;49.594;10.958;2022-12-18T14:47:43;-2.50;99.90
9265;DHT22;4669;49.594;10.958;2022-12-18T14:52:45;-2.50;99.90
9265;DHT22;4669;49.594;10.958;2022-12-18T14:57:50;-2.50;99.90
9265;DHT22;4669;49.594;10.958;2022-12-18T15:02:56;-2.60;99.90
9265;DHT22;4669;49.594;10.958;2022-12-18T15:08:00;-2.70;99.90
9265;DHT22;4669;49.594;10.958;2022-12-18T15:13:09;-2.70;99.90
9265;DHT22;4669;49.594;10.958;2022-12-18T15:18:15;-2.80;99.90
9265;DHT22;4669;49.594;10.958;2022-12-18T15:23:20;-2.80;99.90
9265;DHT22;4669;49.594;10.958;2022-12-18T15:28:24;-2.90;99.90
9265;DHT22;4669;49.594;10.958;2022-12-18T15:33:32;-2.90;99.90
9265;DHT22;4669;49.594;10.958;2022-12-18T15:38:34;-2.90;99.90
9265;DHT22;4669;49.594;10.958;2022-12-18T15:43:37;-3.00;99.90
9265;DHT22;4669;49.594;10.958;2022-12-18T15:48:42;-3.10;99.90
9265;DHT22;4669;49.594;10.958;2022-12-18T15:53:44;-3.10;99.90
9265;DHT22;4669;49.594;10.958;2022-12-18T15:58:47;-3.10;99.90
9265;DHT22;4669;49.594;10.958;2022-12-18T16:03:51;-3.20;99.90
9265;DHT22;4669;49.594;10.958;2022-12-18T16:08:54;-3.20;99.90
9265;DHT22;4669;49.594;10.958;2022-12-18T16:13:56;-3.20;99.90
9265;DHT22;4669;49.594;10.958;2022-12-18T16:18:59;-3.30;99.90
9265;DHT22;4669;49.594;10.958;2022-12-18T16:24:01;-3.30;99.90
9265;DHT22;4669;49.594;10.958;2022-12-18T16:29:03;-3.30;99.90
9265;DHT22;4669;49.594;10.958;2022-12-18T16:34:14;-3.30;99.90
9265;DHT22;4669;49.594;10.958;2022-12-18T16:39:19;-3.30;99.90
9265;DHT22;4669;49.594;10.958;2022-12-18T16:44:21;-3.40;99.90
9265;DHT22;4669;49.594;10.958;2022-12-18T16:49:25;-3.40;99.90
9265;DHT22;4669;49.594;10.958;2022-12-18T16:54:27;-3.40;99.90
9265;DHT22;4669;49.594;10.958;2022-12-18T16:59:30;-3.30;99.90
9265;DHT22;4669;49.594;10.958;2022-12-18T17:04:34;-3.30;99.90
9265;DHT22;4669;49.594;10.958;2022-12-18T17:09:37;-3.30;99.90
9265;DHT22;4669;49.594;10.958;2022-12-18T17:14:39;-3.40;99.90
9265;DHT22;4669;49.594;10.958;2022-12-18T17:19:42;-3.50;99.90
9265;DHT22;4669;49.594;10.958;2022-12-18T17:24:45;-3.30;99.90
9265;DHT22;4669;49.594;10.958;2022-12-18T17:29:47;-3.40;99.90
9265;DHT22;4669;49.594;10.958;2022-12-18T17:34:50;-3.40;99.90
9265;DHT22;4669;49.594;10.958;2022-12-18T17:39:52;-3.40;99.90
9265;DHT22;4669;49.594;10.958;2022-12-18T17:44:54;-3.40;99.90
9265;DHT22;4669;49.594;10.958;2022-12-18T17:49:58;-3.40;99.90
9265;DHT22;4669;49.594;10.958;2022-12-18T17:55:00;-3.50;99.90
9265;DHT22;4669;49.594;10.958;2022-12-18T18:00:03;-3.40;99.90
9265;DHT22;4669;49.594;10.958;2022-12-18T18:05:11;-3.50;99.90
9265;DHT22;4669;49.594;10.958;2022-12-18T18:10:13;-3.50;99.90
9265;DHT22;4669;49.594;10.958;2022-12-18T18:15:16;-3.60;99.90
9265;DHT22;4669;49.594;10.958;2022-12-18T18:20:19;-3.60;99.90
9265;DHT22;4669;49.594;10.958;2022-12-18T18:25:21;-3.50;99.90
9265;DHT22;4669;49.594;10.958;2022-12-18T18:30:23;-3.50;99.90
9265;DHT22;4669;49.594;10.958;2022-12-18T18:35:27;-3.40;99.90
9265;DHT22;4669;49.594;10.958;2022-12-18T18:40:29;-3.40;99.90
9265;DHT22;4669;49.594;10.958;2022-12-18T18:45:30;-3.40;99.90
9265;DHT22;4669;49.594;10.958;2022-12-18T18:50:34;-3.50;99.90
9265;DHT22;4669;49.594;10.958;2022-12-18T18:55:36;-3.40;99.90
9265;DHT22;4669;49.594;10.958;2022-12-18T19:00:38;-3.40;99.90
9265;DHT22;4669;49.594;10.958;2022-12-18T19:05:41;-3.40;99.90
9265;DHT22;4669;49.594;10.958;2022-12-18T19:10:43;-3.40;99.90
9265;DHT22;4669;49.594;10.958;2022-12-18T19:15:45;-3.50;99.90
9265;DHT22;4669;49.594;10.958;2022-12-18T19:20:56;-3.40;99.90
9265;DHT22;4669;49.594;10.958;2022-12-18T19:26:00;-3.40;99.90
9265;DHT22;4669;49.594;10.958;2022-12-18T19:31:05;-3.30;99.90
9265;DHT22;4669;49.594;10.958;2022-12-18T19:36:18;-3.40;99.90
9265;DHT22;4669;49.594;10.958;2022-12-18T19:41:21;-3.40;99.90
9265;DHT22;4669;49.594;10.958;2022-12-18T19:46:23;-3.40;99.90
9265;DHT22;4669;49.594;10.958;2022-12-18T19:51:28;-3.40;99.90
9265;DHT22;4669;49.594;10.958;2022-12-18T19:56:32;-3.40;99.90
9265;DHT22;4669;49.594;10.958;2022-12-18T20:01:34;-3.40;99.90
9265;DHT22;4669;49.594;10.958;2022-12-18T20:06:46;-3.40;99.90
9265;DHT22;4669;49.594;10.958;2022-12-18T20:11:49;-3.40;99.90
9265;DHT22;4669;49.594;10.958;2022-12-18T20:16:51;-3.40;99.90
9265;DHT22;4669;49.594;10.958;2022-12-18T20:21:54;-3.40;99.90
